createdAt,value
2023-01-01T00:00:08.288Z,3.47
2023-01-01T00:05:19.862Z,3.08
2023-01-01T00:10:28.992Z,3.03
2023-01-01T00:20:50.023Z,3.55
2023-01-01T00:25:53.113Z,3.45
2023-01-01T00:30:56.197Z,3.03
2023-01-01T00:36:13.820Z,3.42
2023-01-01T00:41:17.886Z,3.45
2023-01-01T00:46:20.923Z,3.50
2023-01-01T00:51:24.041Z,3.47
2023-01-01T00:56:27.188Z,3.50
2023-01-01T01:01:30.465Z,3.58
2023-01-01T01:06:33.653Z,3.25
2023-01-01T01:11:36.724Z,3.60
2023-01-01T01:16:39.873Z,3.63
2023-01-01T01:21:43.342Z,3.75
2023-01-01T01:26:46.946Z,2.78
2023-01-01T01:31:52.854Z,3.25
2023-01-01T01:36:56.749Z,2.80
2023-01-01T01:41:59.890Z,3.05
2023-01-01T01:47:06.422Z,3.17
2023-01-01T01:52:10.313Z,2.22
2023-01-01T01:57:14.401Z,2.20
2023-01-01T02:02:28.018Z,2.35
2023-01-01T02:07:33.770Z,2.05
2023-01-01T02:12:36.944Z,2.40
2023-01-01T02:18:04.301Z,1.75
2023-01-01T02:23:22.404Z,2.58
2023-01-01T02:28:43.904Z,2.85
2023-01-01T02:33:47.960Z,2.33
2023-01-01T02:38:55.101Z,3.30
2023-01-01T02:49:04.702Z,3.20
2023-01-01T02:54:20.033Z,4.07
2023-01-01T02:59:50.444Z,3.65
2023-01-01T03:05:27.245Z,3.70
2023-01-01T03:10:39.244Z,3.88
2023-01-01T03:15:46.584Z,3.65
2023-01-01T03:20:55.005Z,4.70
2023-01-01T03:26:03.074Z,3.35
2023-01-01T03:31:07.274Z,3.53
2023-01-01T03:36:13.150Z,3.42
2023-01-01T03:41:23.444Z,3.90
2023-01-01T03:46:31.351Z,3.80
2023-01-01T03:52:07.761Z,3.55
2023-01-01T03:57:28.179Z,3.30
2023-01-01T04:02:41.186Z,3.65
2023-01-01T04:12:55.847Z,3.38
2023-01-01T04:17:58.954Z,3.53
2023-01-01T04:23:03.486Z,3.30
2023-01-01T04:28:06.490Z,3.25
2023-01-01T04:33:09.598Z,3.75
2023-01-01T04:38:21.541Z,3.83
2023-01-01T04:43:24.596Z,3.92
2023-01-01T04:48:28.895Z,3.67
2023-01-01T04:53:34.329Z,3.63
2023-01-01T04:58:39.742Z,3.58
2023-01-01T05:03:42.770Z,4.60
2023-01-01T05:08:48.603Z,3.88
2023-01-01T05:13:54.370Z,3.97
2023-01-01T05:18:57.912Z,4.20
2023-01-01T05:24:03.432Z,3.30
2023-01-01T05:29:13.738Z,3.72
2023-01-01T05:34:19.453Z,3.90
2023-01-01T05:39:22.549Z,3.75
2023-01-01T05:49:43.459Z,3.10
2023-01-01T05:54:46.513Z,3.67
2023-01-01T05:59:49.695Z,3.30
2023-01-01T06:04:54.179Z,3.83
2023-01-01T06:09:59.732Z,3.72
2023-01-01T06:15:02.912Z,3.40
2023-01-01T06:20:06.674Z,3.45
2023-01-01T06:25:10.171Z,3.53
2023-01-01T06:30:13.374Z,4.57
2023-01-01T06:35:16.571Z,4.03
2023-01-01T06:40:19.861Z,4.75
2023-01-01T06:45:22.945Z,4.60
2023-01-01T06:50:26.022Z,5.00
2023-01-01T06:55:29.125Z,4.88
2023-01-01T07:00:32.166Z,5.35
2023-01-01T07:05:35.217Z,6.13
2023-01-01T07:10:38.334Z,5.90
2023-01-01T07:15:41.773Z,6.13
2023-01-01T07:20:48.553Z,7.00
2023-01-01T07:25:52.974Z,6.65
2023-01-01T07:30:56.094Z,8.30
2023-01-01T07:35:59.169Z,7.95
2023-01-01T07:41:02.132Z,7.63
2023-01-01T07:46:05.535Z,8.45
2023-01-01T07:51:08.689Z,7.90
2023-01-01T07:56:11.808Z,8.90
2023-01-01T08:01:15.400Z,9.30
2023-01-01T08:06:19.041Z,8.90
2023-01-01T08:11:22.118Z,8.80
2023-01-01T08:16:25.292Z,8.82
2023-01-01T08:21:28.740Z,10.05
2023-01-01T08:26:34.160Z,10.43
2023-01-01T08:31:37.319Z,10.27
2023-01-01T08:36:43.696Z,11.45
2023-01-01T08:41:46.769Z,11.35
2023-01-01T08:46:52.612Z,10.00
2023-01-01T08:51:55.727Z,9.50
2023-01-01T08:56:58.769Z,11.45
2023-01-01T09:02:01.971Z,10.80
2023-01-01T09:07:05.267Z,11.35
2023-01-01T09:12:09.624Z,11.18
2023-01-01T09:22:29.473Z,11.73
2023-01-01T09:27:32.551Z,11.50
2023-01-01T09:32:35.610Z,11.98
2023-01-01T09:37:38.636Z,12.45
2023-01-01T09:42:49.550Z,11.20
2023-01-01T09:48:14.868Z,11.82
2023-01-01T09:53:38.257Z,12.43
2023-01-01T09:58:41.403Z,12.60
2023-01-01T10:03:54.770Z,12.10
2023-01-01T10:14:39.076Z,14.75
2023-01-01T10:19:52.542Z,14.05
2023-01-01T10:25:18.455Z,13.68
2023-01-01T10:30:23.735Z,13.30
2023-01-01T10:35:35.653Z,13.50
2023-01-01T10:40:40.268Z,14.15
2023-01-01T10:45:56.200Z,13.60
2023-01-01T10:51:16.472Z,14.98
2023-01-01T10:56:22.567Z,16.08
2023-01-01T11:01:26.928Z,15.15
2023-01-01T11:06:36.613Z,15.27
2023-01-01T11:11:45.733Z,15.07
2023-01-01T11:16:49.905Z,17.08
2023-01-01T11:21:52.944Z,16.00
2023-01-01T11:32:39.225Z,16.10
2023-01-01T11:37:44.743Z,16.67
2023-01-01T11:42:58.217Z,16.60
2023-01-01T11:48:12.591Z,17.52
2023-01-01T11:53:24.698Z,16.33
2023-01-01T11:58:36.686Z,14.07
2023-01-01T12:03:57.594Z,14.50
2023-01-01T12:09:05.507Z,13.93
2023-01-01T12:14:22.386Z,13.32
2023-01-01T12:24:50.417Z,12.88
2023-01-01T12:30:21.864Z,11.88
2023-01-01T12:35:52.111Z,11.40
2023-01-01T12:41:18.480Z,10.55
2023-01-01T12:46:44.971Z,11.60
2023-01-01T12:51:48.132Z,10.48
2023-01-01T12:57:17.927Z,10.25
2023-01-01T13:02:25.591Z,8.80
2023-01-01T13:07:36.281Z,8.90
2023-01-01T13:12:39.855Z,9.63
2023-01-01T13:17:53.414Z,8.60
2023-01-01T13:22:56.507Z,8.27
2023-01-01T13:27:59.837Z,8.07
2023-01-01T13:33:32.787Z,7.93
2023-01-01T13:38:55.121Z,7.25
2023-01-01T13:44:00.858Z,7.68
2023-01-01T13:49:41.178Z,7.00
2023-01-01T13:55:17.397Z,8.35
2023-01-01T14:00:45.241Z,8.05
2023-01-01T14:05:58.495Z,9.32
2023-01-01T14:11:03.488Z,9.23
2023-01-01T14:16:11.116Z,8.68
2023-01-01T14:21:17.716Z,9.52
2023-01-01T14:26:22.659Z,7.78
2023-01-01T14:31:31.114Z,9.85
2023-01-01T14:36:35.198Z,9.15
2023-01-01T14:41:41.956Z,9.13
2023-01-01T14:51:58.196Z,9.38
2023-01-01T15:02:33.430Z,10.57
2023-01-01T15:07:36.581Z,10.40
2023-01-01T15:12:41.620Z,10.40
2023-01-01T15:17:48.218Z,10.50
2023-01-01T15:22:52.983Z,8.52
2023-01-01T15:27:56.318Z,8.98
2023-01-01T15:33:14.829Z,9.95
2023-01-01T15:38:29.724Z,9.73
2023-01-01T15:43:32.797Z,8.93
2023-01-01T15:48:38.126Z,9.77
2023-01-01T15:53:57.315Z,7.93
2023-01-01T16:04:34.809Z,8.32
2023-01-01T16:09:38.193Z,9.40
2023-01-01T16:14:41.350Z,8.40
2023-01-01T16:19:44.874Z,9.02
2023-01-01T16:40:59.204Z,9.48
2023-01-01T16:46:02.529Z,8.52
2023-01-01T16:51:15.187Z,8.70
2023-01-01T16:56:18.389Z,9.27
2023-01-01T17:01:24.866Z,9.30
2023-01-01T17:06:30.919Z,8.45
2023-01-01T17:11:34.232Z,8.88
2023-01-01T17:16:39.920Z,8.45
2023-01-01T17:21:43.683Z,9.40
2023-01-01T17:26:50.330Z,8.70
2023-01-01T17:36:56.369Z,9.80
2023-01-01T17:41:59.566Z,10.25
2023-01-01T17:47:02.724Z,10.15
2023-01-01T17:52:06.041Z,11.77
2023-01-01T17:57:09.154Z,10.50
2023-01-01T18:02:14.265Z,11.68
2023-01-01T18:07:17.453Z,10.80
2023-01-01T18:17:45.054Z,10.32
2023-01-01T18:22:48.274Z,9.55
2023-01-01T18:27:57.211Z,10.63
2023-01-01T18:33:00.637Z,11.80
2023-01-01T18:38:03.727Z,11.85
2023-01-01T18:43:24.454Z,10.95
2023-01-01T18:48:28.009Z,10.73
2023-01-01T18:53:32.773Z,9.77
2023-01-01T18:58:36.099Z,11.88
2023-01-01T19:03:41.616Z,11.35
2023-01-01T19:08:44.918Z,11.23
2023-01-01T19:13:49.019Z,11.15
2023-01-01T19:18:53.514Z,12.27
2023-01-01T19:23:59.050Z,16.70
2023-01-01T19:29:10.251Z,16.00
2023-01-01T19:34:13.456Z,13.65
2023-01-01T19:39:17.238Z,13.98
2023-01-01T19:44:24.937Z,15.52
2023-01-01T19:49:28.616Z,13.50
2023-01-01T19:54:31.646Z,14.73
2023-01-01T19:59:34.731Z,14.52
2023-01-01T20:04:37.807Z,12.40
2023-01-01T20:09:41.351Z,10.95
2023-01-01T20:14:44.406Z,11.27
2023-01-01T20:19:47.403Z,10.82
2023-01-01T20:24:50.522Z,11.32
2023-01-01T20:29:57.944Z,11.30
2023-01-01T20:35:01.172Z,10.50
2023-01-01T20:40:08.786Z,9.80
2023-01-01T20:45:12.400Z,9.45
2023-01-01T20:50:15.569Z,10.70
2023-01-01T20:55:18.629Z,9.35
2023-01-01T21:00:21.895Z,10.60
2023-01-01T21:05:24.973Z,9.82
2023-01-01T21:10:28.124Z,9.65
2023-01-01T21:15:31.181Z,10.80
2023-01-01T21:20:46.418Z,9.80
2023-01-01T21:36:31.072Z,10.93
2023-01-01T21:41:34.916Z,11.02
2023-01-01T21:46:41.162Z,10.95
2023-01-01T21:51:54.141Z,11.25
2023-01-01T21:57:02.594Z,10.77
2023-01-01T22:02:08.827Z,11.07
2023-01-01T22:13:02.107Z,10.32
2023-01-01T22:18:26.029Z,10.93
2023-01-01T22:23:31.774Z,11.07
2023-01-01T22:28:42.988Z,11.52
2023-01-01T22:33:49.989Z,10.57
2023-01-01T22:39:01.110Z,10.38
2023-01-01T22:44:04.932Z,10.90
2023-01-01T22:49:33.201Z,11.18
2023-01-01T22:54:36.267Z,10.60
2023-01-01T22:59:39.356Z,10.65
2023-01-01T23:04:42.408Z,11.23
2023-01-01T23:09:45.496Z,10.60
2023-01-01T23:15:07.128Z,12.82
2023-01-01T23:20:10.564Z,12.00
2023-01-01T23:25:16.911Z,13.15
2023-01-01T23:30:20.286Z,11.90
2023-01-01T23:35:23.309Z,10.68
2023-01-01T23:40:26.438Z,10.40
2023-01-01T23:45:29.579Z,12.07
2023-01-01T23:50:42.629Z,10.38
2023-01-01T23:55:45.647Z,11.10
